createdAt,value
2024-04-07T00:00:27.059Z,24.60
2024-04-07T00:05:30.995Z,25.50
2024-04-07T00:10:37.511Z,25.30
2024-04-07T00:15:40.400Z,24.10
2024-04-07T00:20:43.479Z,29.10
2024-04-07T00:25:46.550Z,26.20
2024-04-07T00:30:50.674Z,24.00
2024-04-07T00:35:57.295Z,27.30
2024-04-07T00:41:03.411Z,29.20
2024-04-07T00:46:06.232Z,29.50
2024-04-07T00:51:09.796Z,31.80
2024-04-07T00:56:13.162Z,27.60
2024-04-07T01:01:15.970Z,30.20
2024-04-07T01:06:19.156Z,29.30
2024-04-07T01:11:27.711Z,34.80
2024-04-07T01:16:30.544Z,35.10
2024-04-07T01:21:33.569Z,31.30
2024-04-07T01:26:36.363Z,34.80
2024-04-07T01:31:39.787Z,32.90
2024-04-07T01:36:43.979Z,34.60
2024-04-07T01:41:46.906Z,33.00
2024-04-07T01:46:49.895Z,26.80
2024-04-07T01:51:52.785Z,29.60
2024-04-07T01:56:55.572Z,28.50
2024-04-07T02:01:58.488Z,28.60
2024-04-07T02:07:01.340Z,28.00
2024-04-07T02:12:05.539Z,26.20
2024-04-07T02:17:08.497Z,26.10
2024-04-07T02:22:11.335Z,27.50
2024-04-07T02:27:14.174Z,27.80
2024-04-07T02:32:18.289Z,27.00
2024-04-07T02:37:21.217Z,28.60
2024-04-07T02:42:24.052Z,27.80
2024-04-07T02:47:50.597Z,29.70
2024-04-07T02:52:53.487Z,28.00
2024-04-07T02:57:56.571Z,25.90
2024-04-07T03:02:59.394Z,25.60
2024-04-07T03:08:05.506Z,27.70
2024-04-07T03:13:08.366Z,22.20
2024-04-07T03:18:11.455Z,24.90
2024-04-07T03:23:14.933Z,26.40
2024-04-07T03:28:17.835Z,24.90
2024-04-07T03:33:21.117Z,25.60
2024-04-07T03:38:23.974Z,31.10
2024-04-07T03:43:26.782Z,25.90
2024-04-07T03:48:29.596Z,24.30
2024-04-07T03:53:32.535Z,25.40
2024-04-07T03:58:35.385Z,32.50
2024-04-07T04:03:38.194Z,26.30
2024-04-07T04:08:41.102Z,27.70
2024-04-07T04:13:47.058Z,24.50
2024-04-07T04:18:53.901Z,26.00
2024-04-07T04:23:56.899Z,30.10
2024-04-07T04:28:59.758Z,24.90
2024-04-07T04:34:03.210Z,27.60
2024-04-07T04:39:07.132Z,27.00
2024-04-07T04:44:10.107Z,23.70
2024-04-07T04:49:13.073Z,29.00
2024-04-07T04:54:16.236Z,29.90
2024-04-07T04:59:19.113Z,26.30
2024-04-07T05:04:21.970Z,27.10
2024-04-07T05:09:24.850Z,25.00
2024-04-07T05:14:27.658Z,27.30
2024-04-07T05:19:30.655Z,25.20
2024-04-07T05:24:33.521Z,23.00
2024-04-07T05:29:36.366Z,23.70
2024-04-07T05:34:40.234Z,21.00
2024-04-07T05:39:48.935Z,21.30
2024-04-07T05:44:51.787Z,21.80
2024-04-07T05:49:54.938Z,24.60
2024-04-07T05:54:57.882Z,21.80
2024-04-07T06:00:00.959Z,21.90
2024-04-07T06:05:04.326Z,19.40
2024-04-07T06:10:07.958Z,19.40
2024-04-07T06:15:11.020Z,18.10
2024-04-07T06:20:13.928Z,18.20
2024-04-07T06:25:16.931Z,19.40
2024-04-07T06:30:19.991Z,14.50
2024-04-07T06:35:23.328Z,14.70
2024-04-07T06:40:26.194Z,15.50
2024-04-07T06:45:29.129Z,15.10
2024-04-07T06:50:33.993Z,15.50
2024-04-07T06:55:37.725Z,13.20
2024-04-07T07:00:41.644Z,12.30
2024-04-07T07:05:44.881Z,12.10
2024-04-07T07:11:00.084Z,11.00
2024-04-07T07:16:03.163Z,10.50
2024-04-07T07:21:07.462Z,11.10
2024-04-07T07:26:10.378Z,12.60
2024-04-07T07:31:13.370Z,10.20
2024-04-07T07:36:16.366Z,10.10
2024-04-07T07:41:19.163Z,9.00
2024-04-07T07:46:21.989Z,8.20
2024-04-07T07:51:25.584Z,10.10
2024-04-07T07:56:28.380Z,10.30
2024-04-07T08:01:33.017Z,6.80
2024-04-07T08:06:35.974Z,9.00
2024-04-07T08:11:38.931Z,7.00
2024-04-07T08:16:41.756Z,6.10
2024-04-07T08:21:44.563Z,6.20
2024-04-07T08:26:47.380Z,6.90
2024-04-07T08:31:50.192Z,6.20
2024-04-07T08:36:53.434Z,8.40
2024-04-07T08:41:58.627Z,5.20
2024-04-07T08:47:03.502Z,6.00
2024-04-07T08:57:12.006Z,4.60
2024-04-07T09:02:19.375Z,5.00
2024-04-07T09:07:23.899Z,12.80
2024-04-07T09:12:26.999Z,4.10
2024-04-07T09:17:31.384Z,3.80
2024-04-07T09:22:35.467Z,4.90
2024-04-07T09:27:38.683Z,5.40
2024-04-07T09:32:42.847Z,4.90
2024-04-07T09:37:47.154Z,3.80
2024-04-07T09:42:54.924Z,4.80
2024-04-07T09:48:02.900Z,3.70
2024-04-07T09:53:20.926Z,4.20
2024-04-07T09:58:24.349Z,6.70
2024-04-07T10:03:28.194Z,7.20
2024-04-07T10:08:32.197Z,6.00
2024-04-07T10:13:35.062Z,6.80
2024-04-07T10:18:41.283Z,8.90
2024-04-07T10:23:48.385Z,6.80
2024-04-07T10:28:54.529Z,5.20
2024-04-07T10:33:58.012Z,5.80
2024-04-07T10:39:03.657Z,5.70
2024-04-07T10:44:10.080Z,7.20
2024-04-07T10:49:13.865Z,6.20
2024-04-07T10:54:16.669Z,5.60
2024-04-07T10:59:19.518Z,4.60
2024-04-07T11:04:22.781Z,3.70
2024-04-07T11:09:25.821Z,3.40
2024-04-07T11:14:30.607Z,3.30
2024-04-07T11:19:33.979Z,2.80
2024-04-07T11:24:38.289Z,3.50
2024-04-07T11:29:41.401Z,3.70
2024-04-07T11:34:45.826Z,3.40
2024-04-07T11:39:56.992Z,2.80
2024-04-07T11:45:04.903Z,3.80
2024-04-07T11:50:10.127Z,3.90
2024-04-07T11:55:13.103Z,4.50
2024-04-07T12:00:18.824Z,2.50
2024-04-07T12:05:21.803Z,4.10
2024-04-07T12:10:24.647Z,3.60
2024-04-07T12:15:27.545Z,2.90
2024-04-07T12:20:30.399Z,2.70
2024-04-07T12:25:33.495Z,3.40
2024-04-07T12:30:36.407Z,4.10
2024-04-07T12:35:39.939Z,3.70
2024-04-07T12:40:43.294Z,3.70
2024-04-07T12:45:46.136Z,3.20
2024-04-07T12:50:49.444Z,3.30
2024-04-07T12:55:52.349Z,4.00
2024-04-07T13:00:55.156Z,3.90
2024-04-07T13:05:59.002Z,5.40
2024-04-07T13:11:02.089Z,3.10
2024-04-07T13:16:05.839Z,5.30
2024-04-07T13:21:09.459Z,3.30
2024-04-07T13:26:12.314Z,3.50
2024-04-07T13:31:15.143Z,3.60
2024-04-07T13:36:18.002Z,2.40
2024-04-07T13:41:23.007Z,3.30
2024-04-07T13:46:26.022Z,3.30
2024-04-07T13:51:29.174Z,4.20
2024-04-07T13:56:32.373Z,2.50
2024-04-07T14:01:35.738Z,4.10
2024-04-07T14:06:38.586Z,3.20
2024-04-07T14:11:41.581Z,2.60
2024-04-07T14:16:44.452Z,2.80
2024-04-07T14:21:47.299Z,4.80
2024-04-07T14:26:50.321Z,4.60
2024-04-07T14:31:53.174Z,4.20
2024-04-07T14:36:56.909Z,3.50
2024-04-07T14:42:00.406Z,3.10
2024-04-07T14:47:04.093Z,4.70
2024-04-07T14:52:07.820Z,3.80
2024-04-07T14:57:10.868Z,3.70
2024-04-07T15:02:15.772Z,4.80
2024-04-07T15:07:20.481Z,4.80
2024-04-07T15:12:23.515Z,3.90
2024-04-07T15:17:26.320Z,3.60
2024-04-07T15:22:29.354Z,5.60
2024-04-07T15:27:32.197Z,2.90
2024-04-07T15:32:35.152Z,3.10
2024-04-07T15:37:40.779Z,5.50
2024-04-07T15:42:44.026Z,3.10
2024-04-07T15:47:46.964Z,2.70
2024-04-07T15:52:52.096Z,4.00
2024-04-07T15:57:54.964Z,5.50
2024-04-07T16:02:57.847Z,3.70
2024-04-07T16:08:00.932Z,5.30
2024-04-07T16:13:04.744Z,3.80
2024-04-07T16:18:08.262Z,3.30
2024-04-07T16:23:11.196Z,3.10
2024-04-07T16:28:14.089Z,4.10
2024-04-07T16:33:17.121Z,5.00
2024-04-07T16:38:20.497Z,4.50
2024-04-07T16:43:23.509Z,3.40
2024-04-07T16:48:26.318Z,5.30
2024-04-07T16:53:29.183Z,4.00
2024-04-07T16:58:32.317Z,5.60
2024-04-07T17:03:35.398Z,6.60
2024-04-07T17:08:39.829Z,4.10
2024-04-07T17:13:42.956Z,3.90
2024-04-07T17:18:45.908Z,5.30
2024-04-07T17:23:48.800Z,4.40
2024-04-07T17:28:51.682Z,5.60
2024-04-07T17:33:55.297Z,3.90
2024-04-07T17:38:58.186Z,4.90
2024-04-07T17:44:01.443Z,5.30
2024-04-07T17:49:04.753Z,7.30
2024-04-07T17:54:07.618Z,6.10
2024-04-07T17:59:10.482Z,7.20
2024-04-07T18:04:13.255Z,7.80
2024-04-07T18:09:20.155Z,68.30
2024-04-07T18:14:23.206Z,13.30
2024-04-07T18:19:26.127Z,122.10
2024-04-07T18:24:30.744Z,41.60
2024-04-07T18:29:33.968Z,43.70
2024-04-07T18:34:36.842Z,34.70
2024-04-07T18:39:40.351Z,17.10
2024-04-07T18:44:43.956Z,10.90
2024-04-07T18:49:46.916Z,9.30
2024-04-07T18:54:50.005Z,5.50
2024-04-07T18:59:54.603Z,6.60
2024-04-07T19:05:00.781Z,7.60
2024-04-07T19:10:03.913Z,32.30
2024-04-07T19:15:07.688Z,9.90
2024-04-07T19:20:10.919Z,23.60
2024-04-07T19:25:14.639Z,12.50
2024-04-07T19:30:17.717Z,19.00
2024-04-07T19:35:23.361Z,31.60
2024-04-07T19:40:26.179Z,27.10
2024-04-07T19:45:31.037Z,19.20
2024-04-07T19:50:34.108Z,22.70
2024-04-07T19:55:37.073Z,17.50
2024-04-07T20:00:41.550Z,11.00
2024-04-07T20:05:47.050Z,11.20
2024-04-07T20:10:52.079Z,14.50
2024-04-07T20:15:54.951Z,13.10
2024-04-07T20:21:00.692Z,40.80
2024-04-07T20:26:03.834Z,44.80
2024-04-07T20:31:06.718Z,36.50
2024-04-07T20:36:09.751Z,19.40
2024-04-07T20:41:12.594Z,9.40
2024-04-07T20:46:17.201Z,8.60
2024-04-07T20:51:20.110Z,8.70
2024-04-07T20:56:23.082Z,7.90
2024-04-07T21:01:26.151Z,11.20
2024-04-07T21:06:29.187Z,9.40
2024-04-07T21:11:32.187Z,7.50
2024-04-07T21:16:36.528Z,7.30
2024-04-07T21:21:39.593Z,8.20
2024-04-07T21:26:42.697Z,6.90
2024-04-07T21:31:45.732Z,8.50
2024-04-07T21:36:48.724Z,9.50
2024-04-07T21:41:51.526Z,8.80
2024-04-07T21:46:54.614Z,6.60
2024-04-07T21:51:57.452Z,9.80
2024-04-07T21:57:00.829Z,10.30
2024-04-07T22:02:04.138Z,9.00
2024-04-07T22:07:07.146Z,12.50
2024-04-07T22:12:10.097Z,9.00
2024-04-07T22:17:12.911Z,8.40
2024-04-07T22:22:17.513Z,8.80
2024-04-07T22:27:20.955Z,8.80
2024-04-07T22:32:24.008Z,10.20
2024-04-07T22:37:26.840Z,23.60
2024-04-07T22:42:29.619Z,20.90
2024-04-07T22:47:33.177Z,43.80
2024-04-07T22:52:36.029Z,31.00
2024-04-07T22:57:39.008Z,13.70
2024-04-07T23:02:42.169Z,9.40
2024-04-07T23:07:46.427Z,10.60
2024-04-07T23:12:50.966Z,26.80
2024-04-07T23:17:54.013Z,37.80
2024-04-07T23:22:57.411Z,32.50
2024-04-07T23:28:00.390Z,19.00
2024-04-07T23:33:03.531Z,11.90
2024-04-07T23:38:08.573Z,7.70
2024-04-07T23:43:11.462Z,6.80
2024-04-07T23:48:15.431Z,37.90
2024-04-07T23:53:18.476Z,16.50
2024-04-07T23:58:21.553Z,15.70
